Corozal, Belize
Current Conditions -  °F | °C
As of 9:47 PM on Thursday 18 Dec 2014 (Local Time) from MMCM Reporting Station
Scattered Clouds Scattered Clouds  
Wind Chill: 75°   Ceiling: Unl
Heat Index: 75°   Visibility: 7mi
Dew Point: 68°   Wind: 5mph
Humidity: 78%   Direction: 90°E
Pressure: 30.02"   Gusts: NA
Location:  18.4°N, 88.39°W
Report Text: MMCM 190347Z 09004KT 7SM SCT020 24/20 A3002 RMK 8/500 RTS
Loading
Personal Weather Stations






























Interactive Weather Map New forecast layout! Learn more

10-Day Weather Forecast

Advertisements
Track Severe Weather on mobile